H160 KBFI-KPDX
Flight info
| Callsign | H160 |
|---|---|
| Flight time | 3h 26m |
| Altitude | 6000 |
| Route | SEA CFCHZ 471601N1223421W/N0176F070 470928N1223408W/N0174F060 470239N1224516W 470326N1230008W 470306N1231557W 465957N1232421W 465843N1233434W 465749N1234546W 465447N1240245W WAVLU/N0176F070 463400N1240349W 462012N1240349W 461618N1240515W 461400N1240110W 460957N1235843W 460357N1235636W 455944N1235715W/N0174F060 455610N1235951W/N0176F070 455135N1235823W 454516N1235952W 454216N1235639W 453905N1235701W 453425N1235724W 453017N1235711W/N0174F060 452717N1235838W/N0176F070 452131N1235907W KPFC 450614N1240004W 450134N1240133W 444823N1240419W |
| Aircraft | H160/L-SBDGRY/S |
Departure
| Time | 2026-05-06 11:57 |
|---|---|
| Airport | King County International Airport - Boeing Field (KBFI) |
Arrival
| Time | 2026-05-06 15:23 |
|---|---|
| Airport | Portland International Airport (KPDX) |
| Time | Latitude | Longitude | Altitude | Speed | Heading |
|---|---|---|---|---|---|
| 2026-05-06 11:47 | 47.54404 | -122.31172 | 25 ft | 0 kts | 141° |
| 2026-05-06 11:53 | 47.54404 | -122.31173 | 24 ft | 0 kts | 141° |
| 2026-05-06 11:53 | 47.54404 | -122.31172 | 24 ft | 0 kts | 141° |
| 2026-05-06 11:56 | 47.54402 | -122.31167 | 37 ft | 3 kts | 144° |
| 2026-05-06 11:56 | 47.54384 | -122.31114 | 140 ft | 11 kts | 173° |
| 2026-05-06 11:56 | 47.54169 | -122.30978 | 226 ft | 56 kts | 159° |
| 2026-05-06 11:56 | 47.53718 | -122.30629 | 251 ft | 89 kts | 155° |
| 2026-05-06 11:57 | 47.53196 | -122.30172 | 407 ft | 84 kts | 156° |
| 2026-05-06 11:57 | 47.52714 | -122.29801 | 615 ft | 72 kts | 159° |
| 2026-05-06 11:57 | 47.52282 | -122.29538 | 751 ft | 66 kts | 164° |
| 2026-05-06 11:57 | 47.51823 | -122.29301 | 731 ft | 64 kts | 163° |
| 2026-05-06 11:58 | 47.51446 | -122.29282 | 719 ft | 49 kts | 200° |
| 2026-05-06 11:58 | 47.51130 | -122.29415 | 701 ft | 58 kts | 195° |
| 2026-05-06 11:58 | 47.50614 | -122.29605 | 700 ft | 91 kts | 195° |
| 2026-05-06 11:58 | 47.50009 | -122.29808 | 716 ft | 87 kts | 193° |
| 2026-05-06 11:59 | 47.49411 | -122.29983 | 707 ft | 88 kts | 193° |
| 2026-05-06 11:59 | 47.48818 | -122.30133 | 704 ft | 86 kts | 191° |
| 2026-05-06 11:59 | 47.48225 | -122.30264 | 714 ft | 87 kts | 190° |
| 2026-05-06 11:59 | 47.47628 | -122.30300 | 717 ft | 85 kts | 175° |
| 2026-05-06 12:00 | 47.47048 | -122.30179 | 715 ft | 86 kts | 172° |
| 2026-05-06 12:00 | 47.46482 | -122.29914 | 716 ft | 86 kts | 161° |
| 2026-05-06 12:00 | 47.45913 | -122.29728 | 714 ft | 85 kts | 191° |
| 2026-05-06 12:00 | 47.45325 | -122.29801 | 729 ft | 86 kts | 174° |
| 2026-05-06 12:01 | 47.44949 | -122.29651 | 671 ft | 79 kts | 163° |
| 2026-05-06 12:01 | 47.44415 | -122.29546 | 727 ft | 51 kts | 192° |
| 2026-05-06 12:01 | 47.44045 | -122.29577 | 672 ft | 57 kts | 172° |
| 2026-05-06 12:01 | 47.43651 | -122.29627 | 628 ft | 59 kts | 200° |
| 2026-05-06 12:02 | 47.43411 | -122.29827 | 555 ft | 63 kts | 247° |
| 2026-05-06 12:02 | 47.43489 | -122.30474 | 564 ft | 59 kts | 270° |
| 2026-05-06 12:02 | 47.43500 | -122.30996 | 644 ft | 40 kts | 269° |
| 2026-05-06 12:02 | 47.43539 | -122.31360 | 594 ft | 33 kts | 283° |
| 2026-05-06 12:03 | 47.43572 | -122.31583 | 464 ft | 13 kts | 341° |
| 2026-05-06 12:03 | 47.43616 | -122.31668 | 482 ft | 17 kts | 36° |
| 2026-05-06 12:03 | 47.43750 | -122.31602 | 419 ft | 21 kts | 37° |
| 2026-05-06 12:03 | 47.43788 | -122.31578 | 510 ft | 15 kts | 45° |
| 2026-05-06 12:04 | 47.43832 | -122.31646 | 419 ft | 3 kts | 98° |
| 2026-05-06 12:04 | 47.43825 | -122.31596 | 436 ft | 7 kts | 90° |
| 2026-05-06 12:04 | 47.43833 | -122.31609 | 395 ft | 6 kts | 89° |
| 2026-05-06 12:04 | 47.43831 | -122.31552 | 368 ft | 3 kts | 90° |
| 2026-05-06 12:05 | 47.43829 | -122.31543 | 363 ft | 0 kts | 90° |
| 2026-05-06 12:05 | 47.43830 | -122.31543 | 362 ft | 0 kts | 90° |
| 2026-05-06 12:05 | 47.43829 | -122.31543 | 362 ft | 0 kts | 90° |
| 2026-05-06 12:06 | 47.43830 | -122.31544 | 365 ft | 1 kts | 90° |
| 2026-05-06 12:07 | 47.43805 | -122.31533 | 395 ft | 25 kts | 166° |
| 2026-05-06 12:07 | 47.43593 | -122.31917 | 519 ft | 58 kts | 223° |
| 2026-05-06 12:07 | 47.43273 | -122.32304 | 665 ft | 67 kts | 217° |
| 2026-05-06 12:07 | 47.42843 | -122.32822 | 650 ft | 96 kts | 218° |
| 2026-05-06 12:08 | 47.42238 | -122.33568 | 649 ft | 125 kts | 221° |
| 2026-05-06 12:08 | 47.41602 | -122.34413 | 671 ft | 118 kts | 224° |
| 2026-05-06 12:08 | 47.41008 | -122.35252 | 659 ft | 120 kts | 224° |
| 2026-05-06 12:08 | 47.40419 | -122.36104 | 656 ft | 118 kts | 225° |
| 2026-05-06 12:09 | 47.39831 | -122.36966 | 655 ft | 119 kts | 224° |
| 2026-05-06 12:09 | 47.39254 | -122.37829 | 656 ft | 119 kts | 226° |
| 2026-05-06 12:09 | 47.38670 | -122.38707 | 659 ft | 120 kts | 225° |
| 2026-05-06 12:09 | 47.38084 | -122.39597 | 658 ft | 120 kts | 227° |
| 2026-05-06 12:10 | 47.37512 | -122.40467 | 659 ft | 119 kts | 226° |
| 2026-05-06 12:10 | 47.36936 | -122.41357 | 661 ft | 119 kts | 227° |
| 2026-05-06 12:10 | 47.36381 | -122.42232 | 660 ft | 115 kts | 226° |
| 2026-05-06 12:10 | 47.35829 | -122.43092 | 656 ft | 116 kts | 226° |
| 2026-05-06 12:11 | 47.35273 | -122.43959 | 657 ft | 117 kts | 228° |
| 2026-05-06 12:11 | 47.34717 | -122.44826 | 665 ft | 116 kts | 229° |
| 2026-05-06 12:11 | 47.34154 | -122.45705 | 665 ft | 117 kts | 229° |
| 2026-05-06 12:11 | 47.33587 | -122.46588 | 661 ft | 120 kts | 229° |
| 2026-05-06 12:12 | 47.33025 | -122.47463 | 661 ft | 117 kts | 229° |
| 2026-05-06 12:12 | 47.32458 | -122.48346 | 669 ft | 117 kts | 229° |
| 2026-05-06 12:12 | 47.31908 | -122.49202 | 666 ft | 116 kts | 229° |
| 2026-05-06 12:12 | 47.31353 | -122.50066 | 665 ft | 116 kts | 228° |
| 2026-05-06 12:13 | 47.30784 | -122.50950 | 665 ft | 119 kts | 228° |
| 2026-05-06 12:13 | 47.30220 | -122.51828 | 667 ft | 117 kts | 228° |
| 2026-05-06 12:13 | 47.29651 | -122.52714 | 665 ft | 120 kts | 229° |
| 2026-05-06 12:13 | 47.29080 | -122.53601 | 671 ft | 116 kts | 229° |
| 2026-05-06 12:14 | 47.28521 | -122.54469 | 666 ft | 116 kts | 229° |
| 2026-05-06 12:14 | 47.27955 | -122.55347 | 668 ft | 118 kts | 228° |
| 2026-05-06 12:14 | 47.27395 | -122.56217 | 658 ft | 118 kts | 229° |
| 2026-05-06 12:14 | 47.26771 | -122.57014 | 665 ft | 121 kts | 210° |
| 2026-05-06 12:15 | 47.25946 | -122.57272 | 676 ft | 121 kts | 187° |
| 2026-05-06 12:15 | 47.25114 | -122.57267 | 667 ft | 120 kts | 182° |
| 2026-05-06 12:15 | 47.24276 | -122.57226 | 664 ft | 121 kts | 182° |
| 2026-05-06 12:15 | 47.23442 | -122.57192 | 663 ft | 121 kts | 182° |
| 2026-05-06 12:16 | 47.22598 | -122.57165 | 665 ft | 121 kts | 184° |
| 2026-05-06 12:16 | 47.21758 | -122.57139 | 669 ft | 120 kts | 184° |
| 2026-05-06 12:16 | 47.20924 | -122.57114 | 659 ft | 122 kts | 181° |
| 2026-05-06 12:16 | 47.20062 | -122.57085 | 666 ft | 123 kts | 182° |
| 2026-05-06 12:17 | 47.19211 | -122.57057 | 665 ft | 123 kts | 182° |
| 2026-05-06 12:17 | 47.18354 | -122.57030 | 666 ft | 122 kts | 183° |
| 2026-05-06 12:17 | 47.17511 | -122.57002 | 661 ft | 122 kts | 182° |
| 2026-05-06 12:17 | 47.16674 | -122.56975 | 660 ft | 121 kts | 182° |
| 2026-05-06 12:18 | 47.15853 | -122.57150 | 652 ft | 121 kts | 207° |
| 2026-05-06 12:18 | 47.15197 | -122.57916 | 655 ft | 120 kts | 227° |
| 2026-05-06 12:18 | 47.14623 | -122.58815 | 657 ft | 121 kts | 230° |
| 2026-05-06 12:18 | 47.14063 | -122.59723 | 657 ft | 120 kts | 230° |
| 2026-05-06 12:19 | 47.13504 | -122.60631 | 658 ft | 120 kts | 230° |
| 2026-05-06 12:19 | 47.12946 | -122.61539 | 656 ft | 120 kts | 230° |
| 2026-05-06 12:19 | 47.12383 | -122.62452 | 656 ft | 121 kts | 230° |
| 2026-05-06 12:19 | 47.11824 | -122.63365 | 656 ft | 120 kts | 230° |
| 2026-05-06 12:20 | 47.11264 | -122.64279 | 659 ft | 120 kts | 230° |
| 2026-05-06 12:20 | 47.10708 | -122.65188 | 646 ft | 121 kts | 228° |
| 2026-05-06 12:20 | 47.10135 | -122.66123 | 643 ft | 124 kts | 228° |
| 2026-05-06 12:20 | 47.09557 | -122.67066 | 643 ft | 124 kts | 229° |
| 2026-05-06 12:21 | 47.08990 | -122.67991 | 642 ft | 123 kts | 228° |
| 2026-05-06 12:21 | 47.08322 | -122.68752 | 637 ft | 123 kts | 204° |
| 2026-05-06 12:21 | 47.07477 | -122.68859 | 636 ft | 122 kts | 170° |
| 2026-05-06 12:21 | 47.06757 | -122.68275 | 638 ft | 122 kts | 138° |
| 2026-05-06 12:22 | 47.06368 | -122.67175 | 638 ft | 125 kts | 105° |
| 2026-05-06 12:22 | 47.06452 | -122.65919 | 638 ft | 126 kts | 73° |
| 2026-05-06 12:22 | 47.06994 | -122.64899 | 638 ft | 130 kts | 41° |
| 2026-05-06 12:22 | 47.07832 | -122.64416 | 638 ft | 131 kts | 9° |
| 2026-05-06 12:23 | 47.08687 | -122.64497 | 774 ft | 108 kts | 359° |
| 2026-05-06 12:23 | 47.09104 | -122.64013 | 783 ft | 92 kts | 107° |
| 2026-05-06 12:23 | 47.08775 | -122.63158 | 778 ft | 92 kts | 118° |
| 2026-05-06 12:23 | 47.08568 | -122.62269 | 812 ft | 91 kts | 110° |
| 2026-05-06 12:24 | 47.08423 | -122.61392 | 672 ft | 82 kts | 106° |
| 2026-05-06 12:24 | 47.08343 | -122.60744 | 692 ft | 50 kts | 108° |
| 2026-05-06 12:24 | 47.08267 | -122.60328 | 620 ft | 33 kts | 118° |
| 2026-05-06 12:24 | 47.08186 | -122.59982 | 671 ft | 43 kts | 103° |
| 2026-05-06 12:25 | 47.08201 | -122.59542 | 639 ft | 42 kts | 80° |
| 2026-05-06 12:25 | 47.08247 | -122.59188 | 513 ft | 35 kts | 107° |
| 2026-05-06 12:25 | 47.08188 | -122.58829 | 414 ft | 24 kts | 122° |
| 2026-05-06 12:25 | 47.08116 | -122.58674 | 407 ft | 20 kts | 120° |
| 2026-05-06 12:26 | 47.08067 | -122.58488 | 325 ft | 16 kts | 131° |
| 2026-05-06 12:26 | 47.08055 | -122.58440 | 303 ft | 1 kts | 116° |
| 2026-05-06 12:26 | 47.08055 | -122.58419 | 323 ft | 6 kts | 250° |
| 2026-05-06 12:26 | 47.08055 | -122.58454 | 304 ft | 2 kts | 300° |
| 2026-05-06 13:18 | 47.08057 | -122.58459 | 299 ft | 4 kts | 297° |
| 2026-05-06 13:19 | 47.08115 | -122.58665 | 541 ft | 46 kts | 296° |
| 2026-05-06 13:19 | 47.08296 | -122.59332 | 693 ft | 94 kts | 290° |
| 2026-05-06 13:19 | 47.08439 | -122.60496 | 669 ft | 138 kts | 274° |
| 2026-05-06 13:19 | 47.08508 | -122.62044 | 682 ft | 160 kts | 278° |
| 2026-05-06 13:20 | 47.08802 | -122.63661 | 689 ft | 168 kts | 291° |
| 2026-05-06 13:20 | 47.09347 | -122.65163 | 712 ft | 161 kts | 307° |
| 2026-05-06 13:20 | 47.09915 | -122.66482 | 674 ft | 155 kts | 292° |
| 2026-05-06 13:20 | 47.10046 | -122.68042 | 694 ft | 153 kts | 265° |
| 2026-05-06 13:21 | 47.09693 | -122.69500 | 688 ft | 152 kts | 238° |
| 2026-05-06 13:21 | 47.08946 | -122.70554 | 690 ft | 149 kts | 215° |
| 2026-05-06 13:21 | 47.08080 | -122.71331 | 688 ft | 148 kts | 213° |
| 2026-05-06 13:21 | 47.07218 | -122.72166 | 685 ft | 149 kts | 216° |
| 2026-05-06 13:22 | 47.06397 | -122.73092 | 686 ft | 149 kts | 220° |
| 2026-05-06 13:22 | 47.05613 | -122.74088 | 691 ft | 148 kts | 224° |
| 2026-05-06 13:22 | 47.04912 | -122.75194 | 683 ft | 150 kts | 238° |
| 2026-05-06 13:22 | 47.04612 | -122.76657 | 688 ft | 151 kts | 265° |
| 2026-05-06 13:23 | 47.04607 | -122.78200 | 693 ft | 151 kts | 273° |
| 2026-05-06 13:23 | 47.04670 | -122.79728 | 691 ft | 150 kts | 275° |
| 2026-05-06 13:23 | 47.04753 | -122.81251 | 707 ft | 149 kts | 275° |
| 2026-05-06 13:23 | 47.04832 | -122.82767 | 704 ft | 148 kts | 275° |
| 2026-05-06 13:24 | 47.04910 | -122.84269 | 706 ft | 149 kts | 275° |
| 2026-05-06 13:24 | 47.04990 | -122.85778 | 718 ft | 148 kts | 275° |
| 2026-05-06 13:24 | 47.05068 | -122.87284 | 714 ft | 148 kts | 275° |
| 2026-05-06 13:24 | 47.05147 | -122.88793 | 714 ft | 149 kts | 275° |
| 2026-05-06 13:25 | 47.05226 | -122.90301 | 712 ft | 149 kts | 275° |
| 2026-05-06 13:25 | 47.05304 | -122.91819 | 709 ft | 150 kts | 275° |
| 2026-05-06 13:25 | 47.05384 | -122.93332 | 718 ft | 148 kts | 276° |
| 2026-05-06 13:25 | 47.05461 | -122.94839 | 711 ft | 149 kts | 275° |
| 2026-05-06 13:26 | 47.05538 | -122.96328 | 707 ft | 149 kts | 275° |
| 2026-05-06 13:26 | 47.05616 | -122.97837 | 713 ft | 147 kts | 276° |
| 2026-05-06 13:26 | 47.05675 | -122.99353 | 818 ft | 149 kts | 272° |
| 2026-05-06 13:26 | 47.05682 | -123.00863 | 877 ft | 143 kts | 270° |
| 2026-05-06 13:27 | 47.05684 | -123.02198 | 668 ft | 98 kts | 269° |
| 2026-05-06 13:27 | 47.05669 | -123.02949 | 840 ft | 57 kts | 258° |
| 2026-05-06 13:27 | 47.05495 | -123.03507 | 1102 ft | 63 kts | 240° |
| 2026-05-06 13:27 | 47.05435 | -123.04249 | 1292 ft | 92 kts | 270° |
| 2026-05-06 13:28 | 47.05437 | -123.05370 | 1381 ft | 125 kts | 271° |
| 2026-05-06 13:28 | 47.05444 | -123.06767 | 1440 ft | 145 kts | 271° |
| 2026-05-06 13:28 | 47.05457 | -123.08266 | 1460 ft | 146 kts | 270° |
| 2026-05-06 13:28 | 47.05470 | -123.09726 | 1339 ft | 146 kts | 270° |
| 2026-05-06 13:29 | 47.05469 | -123.11216 | 1294 ft | 146 kts | 270° |
| 2026-05-06 13:29 | 47.05454 | -123.12706 | 1271 ft | 148 kts | 270° |
| 2026-05-06 13:29 | 47.05436 | -123.14221 | 1278 ft | 146 kts | 270° |
| 2026-05-06 13:29 | 47.05417 | -123.15711 | 1257 ft | 148 kts | 269° |
| 2026-05-06 13:30 | 47.05382 | -123.17241 | 1258 ft | 150 kts | 268° |
| 2026-05-06 13:30 | 47.05347 | -123.18746 | 1257 ft | 148 kts | 269° |
| 2026-05-06 13:30 | 47.05310 | -123.20271 | 1259 ft | 150 kts | 269° |
| 2026-05-06 13:30 | 47.05278 | -123.21784 | 1269 ft | 145 kts | 269° |
| 2026-05-06 13:31 | 47.05247 | -123.23269 | 1267 ft | 146 kts | 269° |
| 2026-05-06 13:31 | 47.05216 | -123.24745 | 1254 ft | 144 kts | 269° |
| 2026-05-06 13:31 | 47.05066 | -123.26215 | 1260 ft | 147 kts | 255° |
| 2026-05-06 13:31 | 47.04681 | -123.27598 | 1254 ft | 147 kts | 248° |
| 2026-05-06 13:32 | 47.04239 | -123.28924 | 1246 ft | 148 kts | 245° |
| 2026-05-06 13:32 | 47.03771 | -123.30243 | 1248 ft | 146 kts | 244° |
| 2026-05-06 13:32 | 47.03289 | -123.31572 | 1261 ft | 145 kts | 245° |
| 2026-05-06 13:32 | 47.02800 | -123.32914 | 1266 ft | 150 kts | 245° |
| 2026-05-06 13:33 | 47.02312 | -123.34234 | 1254 ft | 147 kts | 243° |
| 2026-05-06 13:33 | 47.01815 | -123.35549 | 1255 ft | 147 kts | 243° |
| 2026-05-06 13:33 | 47.01323 | -123.36849 | 1255 ft | 146 kts | 243° |
| 2026-05-06 13:33 | 47.00831 | -123.38158 | 1259 ft | 147 kts | 243° |
| 2026-05-06 13:34 | 47.00339 | -123.39488 | 1259 ft | 148 kts | 247° |
| 2026-05-06 13:34 | 47.00012 | -123.40925 | 1258 ft | 151 kts | 257° |
| 2026-05-06 13:34 | 46.99779 | -123.42425 | 1234 ft | 151 kts | 261° |
| 2026-05-06 13:34 | 46.99643 | -123.43425 | 1220 ft | 150 kts | 262° |
| 2026-05-06 13:35 | 46.99386 | -123.45422 | 1011 ft | 152 kts | 261° |
| 2026-05-06 13:35 | 46.99198 | -123.46940 | 949 ft | 151 kts | 262° |
| 2026-05-06 13:35 | 46.99018 | -123.48456 | 808 ft | 152 kts | 261° |
| 2026-05-06 13:35 | 46.98831 | -123.49984 | 755 ft | 153 kts | 262° |
| 2026-05-06 13:36 | 46.98709 | -123.50992 | 742 ft | 151 kts | 262° |
| 2026-05-06 13:36 | 46.98525 | -123.52507 | 726 ft | 152 kts | 262° |
| 2026-05-06 13:36 | 46.98340 | -123.54025 | 719 ft | 151 kts | 262° |
| 2026-05-06 13:36 | 46.98156 | -123.55544 | 714 ft | 152 kts | 262° |
| 2026-05-06 13:37 | 46.97982 | -123.57071 | 716 ft | 152 kts | 263° |
| 2026-05-06 13:37 | 46.97837 | -123.58608 | 717 ft | 152 kts | 264° |
| 2026-05-06 13:37 | 46.97706 | -123.60148 | 718 ft | 152 kts | 265° |
| 2026-05-06 13:37 | 46.97580 | -123.61688 | 716 ft | 152 kts | 265° |
| 2026-05-06 13:38 | 46.97456 | -123.63199 | 715 ft | 151 kts | 265° |
| 2026-05-06 13:38 | 46.97329 | -123.64736 | 720 ft | 153 kts | 264° |
| 2026-05-06 13:38 | 46.97201 | -123.66279 | 717 ft | 153 kts | 264° |
| 2026-05-06 13:38 | 46.97073 | -123.67819 | 717 ft | 152 kts | 265° |
| 2026-05-06 13:39 | 46.96946 | -123.69357 | 715 ft | 152 kts | 265° |
| 2026-05-06 13:39 | 46.96817 | -123.70900 | 701 ft | 151 kts | 265° |
| 2026-05-06 13:39 | 46.96696 | -123.72421 | 584 ft | 152 kts | 265° |
| 2026-05-06 13:39 | 46.96572 | -123.73957 | 547 ft | 152 kts | 265° |
| 2026-05-06 13:40 | 46.96425 | -123.75490 | 536 ft | 152 kts | 261° |
| 2026-05-06 13:40 | 46.96207 | -123.76996 | 528 ft | 151 kts | 259° |
| 2026-05-06 13:40 | 46.95961 | -123.78493 | 525 ft | 152 kts | 258° |
| 2026-05-06 13:40 | 46.95707 | -123.79993 | 527 ft | 151 kts | 258° |
| 2026-05-06 13:41 | 46.95453 | -123.81489 | 526 ft | 151 kts | 257° |
| 2026-05-06 13:41 | 46.95190 | -123.82972 | 527 ft | 150 kts | 258° |
| 2026-05-06 13:41 | 46.94926 | -123.84446 | 523 ft | 150 kts | 257° |
| 2026-05-06 13:41 | 46.94657 | -123.85926 | 520 ft | 151 kts | 257° |
| 2026-05-06 13:42 | 46.94397 | -123.87390 | 523 ft | 150 kts | 257° |
| 2026-05-06 13:42 | 46.94132 | -123.88875 | 524 ft | 151 kts | 258° |
| 2026-05-06 13:42 | 46.93865 | -123.90362 | 527 ft | 150 kts | 257° |
| 2026-05-06 13:42 | 46.93599 | -123.91848 | 523 ft | 151 kts | 257° |
| 2026-05-06 13:43 | 46.93333 | -123.93334 | 525 ft | 150 kts | 257° |
| 2026-05-06 13:43 | 46.93067 | -123.94812 | 524 ft | 150 kts | 257° |
| 2026-05-06 13:43 | 46.92805 | -123.96273 | 522 ft | 150 kts | 257° |
| 2026-05-06 13:43 | 46.92540 | -123.97747 | 523 ft | 151 kts | 257° |
| 2026-05-06 13:44 | 46.92272 | -123.99236 | 525 ft | 151 kts | 258° |
| 2026-05-06 13:44 | 46.92004 | -124.00721 | 521 ft | 152 kts | 258° |
| 2026-05-06 13:44 | 46.91737 | -124.02208 | 524 ft | 150 kts | 258° |
| 2026-05-06 13:44 | 46.91430 | -124.03673 | 522 ft | 152 kts | 248° |
| 2026-05-06 13:45 | 46.90769 | -124.04872 | 526 ft | 153 kts | 223° |
| 2026-05-06 13:45 | 46.88984 | -124.06518 | 404 ft | 152 kts | 213° |
| 2026-05-06 13:45 | 46.88057 | -124.07267 | 388 ft | 153 kts | 212° |
| 2026-05-06 13:46 | 46.87123 | -124.08019 | 384 ft | 153 kts | 213° |
| 2026-05-06 13:46 | 46.86191 | -124.08770 | 379 ft | 153 kts | 212° |
| 2026-05-06 13:46 | 46.85277 | -124.09507 | 374 ft | 152 kts | 212° |
| 2026-05-06 13:46 | 46.84347 | -124.10256 | 372 ft | 153 kts | 213° |
| 2026-05-06 13:47 | 46.83315 | -124.10706 | 380 ft | 156 kts | 190° |
| 2026-05-06 13:47 | 46.82230 | -124.10712 | 375 ft | 156 kts | 182° |
| 2026-05-06 13:47 | 46.81145 | -124.10585 | 373 ft | 157 kts | 179° |
| 2026-05-06 13:47 | 46.80060 | -124.10426 | 376 ft | 156 kts | 178° |
| 2026-05-06 13:48 | 46.78977 | -124.10244 | 374 ft | 157 kts | 177° |
| 2026-05-06 13:48 | 46.77897 | -124.10056 | 373 ft | 156 kts | 177° |
| 2026-05-06 13:48 | 46.76815 | -124.09866 | 371 ft | 157 kts | 178° |
| 2026-05-06 13:48 | 46.75742 | -124.09676 | 374 ft | 157 kts | 178° |
| 2026-05-06 13:49 | 46.74662 | -124.09486 | 374 ft | 156 kts | 177° |
| 2026-05-06 13:49 | 46.73592 | -124.09302 | 326 ft | 155 kts | 178° |
| 2026-05-06 13:49 | 46.72518 | -124.09115 | 299 ft | 155 kts | 178° |
| 2026-05-06 13:49 | 46.71440 | -124.08925 | 284 ft | 156 kts | 177° |
| 2026-05-06 13:50 | 46.70363 | -124.08736 | 278 ft | 156 kts | 178° |
| 2026-05-06 13:50 | 46.69280 | -124.08549 | 276 ft | 156 kts | 178° |
| 2026-05-06 13:50 | 46.68197 | -124.08361 | 275 ft | 157 kts | 177° |
| 2026-05-06 13:50 | 46.67113 | -124.08175 | 275 ft | 157 kts | 177° |
| 2026-05-06 13:51 | 46.66033 | -124.07987 | 274 ft | 156 kts | 177° |
| 2026-05-06 13:51 | 46.64956 | -124.07801 | 273 ft | 156 kts | 178° |
| 2026-05-06 13:51 | 46.63876 | -124.07614 | 272 ft | 157 kts | 177° |
| 2026-05-06 13:51 | 46.62794 | -124.07428 | 275 ft | 156 kts | 177° |
| 2026-05-06 13:52 | 46.61712 | -124.07241 | 274 ft | 156 kts | 177° |
| 2026-05-06 13:52 | 46.60636 | -124.07055 | 274 ft | 156 kts | 177° |
| 2026-05-06 13:52 | 46.59557 | -124.06868 | 272 ft | 156 kts | 177° |
| 2026-05-06 13:52 | 46.58475 | -124.06682 | 274 ft | 156 kts | 177° |
| 2026-05-06 13:53 | 46.57408 | -124.06516 | 274 ft | 156 kts | 179° |
| 2026-05-06 13:53 | 46.56332 | -124.06451 | 271 ft | 155 kts | 182° |
| 2026-05-06 13:53 | 46.55247 | -124.06422 | 273 ft | 156 kts | 183° |
| 2026-05-06 13:53 | 46.54165 | -124.06417 | 273 ft | 155 kts | 184° |
| 2026-05-06 13:54 | 46.53089 | -124.06418 | 273 ft | 155 kts | 184° |
| 2026-05-06 13:54 | 46.52008 | -124.06419 | 271 ft | 155 kts | 184° |
| 2026-05-06 13:54 | 46.50928 | -124.06419 | 273 ft | 155 kts | 184° |
| 2026-05-06 13:54 | 46.49847 | -124.06421 | 274 ft | 155 kts | 184° |
| 2026-05-06 13:55 | 46.48767 | -124.06422 | 273 ft | 155 kts | 184° |
| 2026-05-06 13:55 | 46.47689 | -124.06424 | 296 ft | 155 kts | 183° |
| 2026-05-06 13:55 | 46.46613 | -124.06426 | 283 ft | 155 kts | 183° |
| 2026-05-06 13:55 | 46.45539 | -124.06428 | 278 ft | 154 kts | 183° |
| 2026-05-06 13:56 | 46.44460 | -124.06430 | 273 ft | 155 kts | 183° |
| 2026-05-06 13:56 | 46.43384 | -124.06431 | 271 ft | 155 kts | 182° |
| 2026-05-06 13:56 | 46.42307 | -124.06432 | 271 ft | 155 kts | 182° |
| 2026-05-06 13:56 | 46.41245 | -124.06433 | 258 ft | 154 kts | 183° |
| 2026-05-06 13:57 | 46.40165 | -124.06432 | 256 ft | 156 kts | 183° |
| 2026-05-06 13:57 | 46.39078 | -124.06431 | 267 ft | 156 kts | 184° |
| 2026-05-06 13:57 | 46.37990 | -124.06431 | 272 ft | 156 kts | 184° |
| 2026-05-06 13:57 | 46.36905 | -124.06432 | 274 ft | 155 kts | 183° |
| 2026-05-06 13:58 | 46.35823 | -124.06433 | 274 ft | 156 kts | 183° |
| 2026-05-06 13:58 | 46.34733 | -124.06221 | 268 ft | 164 kts | 165° |
| 2026-05-06 13:58 | 46.33741 | -124.05431 | 281 ft | 161 kts | 153° |
| 2026-05-06 13:58 | 46.32777 | -124.04591 | 276 ft | 162 kts | 152° |
| 2026-05-06 13:59 | 46.31793 | -124.03798 | 279 ft | 161 kts | 158° |
| 2026-05-06 13:59 | 46.30766 | -124.03183 | 277 ft | 162 kts | 162° |
| 2026-05-06 13:59 | 46.29712 | -124.02605 | 277 ft | 162 kts | 163° |
| 2026-05-06 13:59 | 46.28660 | -124.02035 | 280 ft | 162 kts | 163° |
| 2026-05-06 14:00 | 46.27606 | -124.01465 | 278 ft | 162 kts | 163° |
| 2026-05-06 14:00 | 46.26556 | -124.00895 | 281 ft | 161 kts | 163° |
| 2026-05-06 14:00 | 46.25501 | -124.00321 | 281 ft | 162 kts | 163° |
| 2026-05-06 14:00 | 46.24446 | -123.99745 | 282 ft | 162 kts | 163° |
| 2026-05-06 14:01 | 46.23391 | -123.99170 | 282 ft | 162 kts | 163° |
| 2026-05-06 14:01 | 46.22339 | -123.98607 | 283 ft | 160 kts | 162° |
| 2026-05-06 14:01 | 46.21286 | -123.98069 | 282 ft | 161 kts | 163° |
| 2026-05-06 14:01 | 46.20193 | -123.97811 | 283 ft | 160 kts | 181° |
| 2026-05-06 14:02 | 46.19075 | -123.97813 | 283 ft | 161 kts | 181° |
| 2026-05-06 14:02 | 46.17961 | -123.97690 | 283 ft | 161 kts | 175° |
| 2026-05-06 14:02 | 46.16887 | -123.97238 | 285 ft | 161 kts | 161° |
| 2026-05-06 14:02 | 46.15852 | -123.96623 | 283 ft | 161 kts | 159° |
| 2026-05-06 14:03 | 46.14825 | -123.95985 | 283 ft | 161 kts | 159° |
| 2026-05-06 14:03 | 46.13813 | -123.95352 | 283 ft | 161 kts | 159° |
| 2026-05-06 14:03 | 46.12785 | -123.94709 | 283 ft | 161 kts | 159° |
| 2026-05-06 14:03 | 46.11758 | -123.94067 | 283 ft | 161 kts | 159° |
| 2026-05-06 14:04 | 46.10710 | -123.93531 | 283 ft | 160 kts | 168° |
| 2026-05-06 14:04 | 46.09607 | -123.93295 | 283 ft | 160 kts | 180° |
| 2026-05-06 14:04 | 46.08490 | -123.93327 | 283 ft | 160 kts | 185° |
| 2026-05-06 14:04 | 46.07376 | -123.93417 | 283 ft | 160 kts | 186° |
| 2026-05-06 14:05 | 46.06262 | -123.93462 | 283 ft | 161 kts | 180° |
| 2026-05-06 14:05 | 46.05149 | -123.93331 | 283 ft | 160 kts | 176° |
| 2026-05-06 14:05 | 46.04038 | -123.93154 | 283 ft | 160 kts | 176° |
| 2026-05-06 14:05 | 46.02930 | -123.93028 | 288 ft | 160 kts | 179° |
| 2026-05-06 14:06 | 46.01830 | -123.93006 | 287 ft | 159 kts | 185° |
| 2026-05-06 14:06 | 46.00741 | -123.93365 | 284 ft | 160 kts | 206° |
| 2026-05-06 14:06 | 45.99874 | -123.94343 | 285 ft | 159 kts | 228° |
| 2026-05-06 14:06 | 45.99154 | -123.95528 | 286 ft | 159 kts | 232° |
| 2026-05-06 14:07 | 45.98439 | -123.96773 | 284 ft | 159 kts | 233° |
| 2026-05-06 14:07 | 45.97606 | -123.97824 | 279 ft | 161 kts | 212° |
| 2026-05-06 14:07 | 45.96601 | -123.98448 | 283 ft | 159 kts | 207° |
| 2026-05-06 14:07 | 45.95622 | -123.99199 | 283 ft | 160 kts | 212° |
| 2026-05-06 14:08 | 45.94630 | -123.99926 | 281 ft | 161 kts | 201° |
| 2026-05-06 14:08 | 45.93523 | -124.00079 | 285 ft | 161 kts | 177° |
| 2026-05-06 14:08 | 45.92434 | -123.99742 | 285 ft | 159 kts | 167° |
| 2026-05-06 14:08 | 45.91378 | -123.99312 | 178 ft | 156 kts | 163° |
| 2026-05-06 14:09 | 45.90475 | -123.98565 | 121 ft | 131 kts | 139° |
| 2026-05-06 14:09 | 45.89986 | -123.97883 | 76 ft | 65 kts | 143° |
| 2026-05-06 14:09 | 45.89725 | -123.97588 | 183 ft | 43 kts | 141° |
| 2026-05-06 14:09 | 45.89474 | -123.97295 | 216 ft | 56 kts | 158° |
| 2026-05-06 14:10 | 45.89155 | -123.96948 | 237 ft | 55 kts | 116° |
| 2026-05-06 14:10 | 45.88974 | -123.96634 | 222 ft | 43 kts | 161° |
| 2026-05-06 14:10 | 45.88821 | -123.96563 | 214 ft | 19 kts | 168° |
| 2026-05-06 14:10 | 45.88654 | -123.96538 | 133 ft | 33 kts | 178° |
| 2026-05-06 14:11 | 45.88485 | -123.96510 | 108 ft | 25 kts | 180° |
| 2026-05-06 14:11 | 45.88388 | -123.96497 | 48 ft | 9 kts | 179° |
| 2026-05-06 14:11 | 45.88381 | -123.96493 | 26 ft | 0 kts | 170° |
| 2026-05-06 14:12 | 45.88381 | -123.96494 | 28 ft | 0 kts | 166° |
| 2026-05-06 14:14 | 45.88332 | -123.96482 | 47 ft | 18 kts | 206° |
| 2026-05-06 14:15 | 45.88151 | -123.96502 | 57 ft | 36 kts | 200° |
| 2026-05-06 14:15 | 45.87835 | -123.96546 | 55 ft | 56 kts | 187° |
| 2026-05-06 14:15 | 45.87389 | -123.96591 | 51 ft | 72 kts | 184° |
| 2026-05-06 14:15 | 45.86798 | -123.96613 | 33 ft | 102 kts | 180° |
| 2026-05-06 14:16 | 45.86075 | -123.96706 | 61 ft | 96 kts | 195° |
| 2026-05-06 14:16 | 45.85492 | -123.96945 | 106 ft | 78 kts | 200° |
| 2026-05-06 14:16 | 45.85032 | -123.97200 | 92 ft | 64 kts | 199° |
| 2026-05-06 14:16 | 45.84621 | -123.97355 | 75 ft | 68 kts | 193° |
| 2026-05-06 14:17 | 45.84029 | -123.97541 | 122 ft | 106 kts | 192° |
| 2026-05-06 14:17 | 45.83202 | -123.97766 | 235 ft | 134 kts | 192° |
| 2026-05-06 14:17 | 45.82230 | -123.98028 | 292 ft | 149 kts | 193° |
| 2026-05-06 14:17 | 45.81181 | -123.98321 | 314 ft | 157 kts | 193° |
| 2026-05-06 14:18 | 45.80114 | -123.98611 | 329 ft | 158 kts | 193° |
| 2026-05-06 14:18 | 45.79029 | -123.98902 | 333 ft | 159 kts | 192° |
| 2026-05-06 14:18 | 45.77936 | -123.99177 | 337 ft | 159 kts | 192° |
| 2026-05-06 14:18 | 45.76894 | -123.99434 | 340 ft | 160 kts | 191° |
| 2026-05-06 14:19 | 45.75780 | -123.99504 | 342 ft | 161 kts | 173° |
| 2026-05-06 14:19 | 45.74742 | -123.98933 | 344 ft | 159 kts | 152° |
| 2026-05-06 14:19 | 45.73812 | -123.98064 | 340 ft | 160 kts | 147° |
| 2026-05-06 14:19 | 45.72917 | -123.97119 | 338 ft | 160 kts | 145° |
| 2026-05-06 14:20 | 45.72029 | -123.96160 | 338 ft | 160 kts | 145° |
| 2026-05-06 14:20 | 45.71142 | -123.95231 | 341 ft | 160 kts | 150° |
| 2026-05-06 14:20 | 45.70087 | -123.94776 | 341 ft | 160 kts | 175° |
| 2026-05-06 14:20 | 45.68974 | -123.94725 | 345 ft | 160 kts | 183° |
| 2026-05-06 14:21 | 45.67859 | -123.94793 | 347 ft | 160 kts | 185° |
| 2026-05-06 14:21 | 45.66744 | -123.94894 | 346 ft | 160 kts | 186° |
| 2026-05-06 14:21 | 45.65631 | -123.95007 | 348 ft | 160 kts | 186° |
| 2026-05-06 14:21 | 45.64519 | -123.95112 | 351 ft | 160 kts | 186° |
| 2026-05-06 14:22 | 45.63402 | -123.95200 | 353 ft | 160 kts | 185° |
| 2026-05-06 14:22 | 45.62286 | -123.95293 | 354 ft | 160 kts | 185° |
| 2026-05-06 14:22 | 45.61173 | -123.95385 | 354 ft | 160 kts | 186° |
| 2026-05-06 14:22 | 45.60151 | -123.95470 | 330 ft | 160 kts | 186° |
| 2026-05-06 14:23 | 45.59038 | -123.95561 | 339 ft | 160 kts | 186° |
| 2026-05-06 14:23 | 45.58200 | -123.95615 | 346 ft | 160 kts | 184° |
| 2026-05-06 14:23 | 45.57083 | -123.95618 | 354 ft | 160 kts | 181° |
| 2026-05-06 14:23 | 45.55968 | -123.95590 | 351 ft | 160 kts | 181° |
| 2026-05-06 14:24 | 45.54850 | -123.95546 | 356 ft | 160 kts | 180° |
| 2026-05-06 14:24 | 45.54111 | -123.95509 | 357 ft | 160 kts | 180° |
| 2026-05-06 14:24 | 45.52998 | -123.95630 | 360 ft | 160 kts | 189° |
| 2026-05-06 14:24 | 45.51894 | -123.95848 | 367 ft | 160 kts | 191° |
| 2026-05-06 14:25 | 45.50811 | -123.96206 | 363 ft | 160 kts | 203° |
| 2026-05-06 14:25 | 45.49871 | -123.97041 | 362 ft | 160 kts | 220° |
| 2026-05-06 14:25 | 45.49019 | -123.98033 | 366 ft | 160 kts | 222° |
| 2026-05-06 14:25 | 45.48073 | -123.98868 | 367 ft | 162 kts | 203° |
| 2026-05-06 14:26 | 45.46967 | -123.99079 | 367 ft | 161 kts | 181° |
| 2026-05-06 14:26 | 45.45852 | -123.98968 | 364 ft | 161 kts | 174° |
| 2026-05-06 14:26 | 45.44751 | -123.98702 | 367 ft | 160 kts | 173° |
| 2026-05-06 14:26 | 45.43645 | -123.98490 | 364 ft | 160 kts | 176° |
| 2026-05-06 14:27 | 45.42531 | -123.98370 | 365 ft | 160 kts | 179° |
| 2026-05-06 14:27 | 45.41415 | -123.98326 | 365 ft | 160 kts | 182° |
| 2026-05-06 14:27 | 45.40299 | -123.98332 | 370 ft | 160 kts | 183° |
| 2026-05-06 14:27 | 45.39185 | -123.98372 | 365 ft | 160 kts | 184° |
| 2026-05-06 14:28 | 45.38091 | -123.98613 | 365 ft | 160 kts | 201° |
| 2026-05-06 14:28 | 45.37073 | -123.99259 | 364 ft | 160 kts | 208° |
| 2026-05-06 14:28 | 45.36079 | -123.99976 | 365 ft | 160 kts | 210° |
| 2026-05-06 14:28 | 45.35104 | -124.00694 | 365 ft | 160 kts | 210° |
| 2026-05-06 14:29 | 45.34102 | -124.01387 | 357 ft | 162 kts | 202° |
| 2026-05-06 14:29 | 45.32990 | -124.01558 | 362 ft | 161 kts | 177° |
| 2026-05-06 14:29 | 45.31932 | -124.01052 | 362 ft | 161 kts | 154° |
| 2026-05-06 14:29 | 45.30986 | -124.00206 | 370 ft | 161 kts | 148° |
| 2026-05-06 14:30 | 45.30048 | -123.99338 | 365 ft | 160 kts | 152° |
| 2026-05-06 14:30 | 45.29053 | -123.98624 | 358 ft | 160 kts | 159° |
| 2026-05-06 14:30 | 45.28007 | -123.98082 | 356 ft | 160 kts | 165° |
| 2026-05-06 14:30 | 45.26931 | -123.97672 | 356 ft | 161 kts | 169° |
| 2026-05-06 14:31 | 45.25837 | -123.97355 | 318 ft | 158 kts | 174° |
| 2026-05-06 14:31 | 45.24836 | -123.97198 | 328 ft | 123 kts | 180° |
| 2026-05-06 14:31 | 45.24204 | -123.97171 | 347 ft | 68 kts | 184° |
| 2026-05-06 14:31 | 45.23795 | -123.97200 | 423 ft | 50 kts | 189° |
| 2026-05-06 14:32 | 45.23482 | -123.97259 | 517 ft | 54 kts | 192° |
| 2026-05-06 14:32 | 45.22985 | -123.97194 | 541 ft | 89 kts | 171° |
| 2026-05-06 14:32 | 45.22314 | -123.97020 | 470 ft | 106 kts | 175° |
| 2026-05-06 14:32 | 45.21564 | -123.96966 | 426 ft | 106 kts | 185° |
| 2026-05-06 14:33 | 45.20909 | -123.96853 | 444 ft | 83 kts | 165° |
| 2026-05-06 14:33 | 45.20543 | -123.96590 | 222 ft | 47 kts | 152° |
| 2026-05-06 14:33 | 45.20289 | -123.96389 | 300 ft | 34 kts | 159° |
| 2026-05-06 14:33 | 45.20102 | -123.96237 | 142 ft | 32 kts | 167° |
| 2026-05-06 14:34 | 45.19906 | -123.96067 | 172 ft | 38 kts | 162° |
| 2026-05-06 14:34 | 45.19697 | -123.95936 | 290 ft | 25 kts | 279° |
| 2026-05-06 14:34 | 45.19869 | -123.96151 | 149 ft | 18 kts | 308° |
| 2026-05-06 14:34 | 45.19974 | -123.96219 | 38 ft | 8 kts | 309° |
| 2026-05-06 14:35 | 45.19995 | -123.96242 | 37 ft | 5 kts | 309° |
| 2026-05-06 14:35 | 45.19997 | -123.96254 | 33 ft | 5 kts | 311° |
| 2026-05-06 14:35 | 45.20016 | -123.96304 | 34 ft | 4 kts | 77° |
| 2026-05-06 14:35 | 45.20026 | -123.96287 | 26 ft | 2 kts | 76° |
| 2026-05-06 14:36 | 45.20028 | -123.96282 | 25 ft | 0 kts | 75° |
| 2026-05-06 14:40 | 45.20030 | -123.96277 | 41 ft | 4 kts | 75° |
| 2026-05-06 14:40 | 45.20029 | -123.96202 | 103 ft | 13 kts | 162° |
| 2026-05-06 14:40 | 45.19878 | -123.96023 | 220 ft | 41 kts | 138° |
| 2026-05-06 14:40 | 45.19513 | -123.95715 | 272 ft | 79 kts | 159° |
| 2026-05-06 14:41 | 45.19127 | -123.95248 | 559 ft | 68 kts | 125° |
| 2026-05-06 14:41 | 45.18785 | -123.94929 | 769 ft | 72 kts | 184° |
| 2026-05-06 14:41 | 45.18187 | -123.95117 | 656 ft | 100 kts | 177° |
| 2026-05-06 14:41 | 45.17541 | -123.94867 | 711 ft | 91 kts | 164° |
| 2026-05-06 14:42 | 45.16979 | -123.94551 | 813 ft | 83 kts | 158° |
| 2026-05-06 14:42 | 45.16457 | -123.94008 | 650 ft | 105 kts | 138° |
| 2026-05-06 14:42 | 45.15925 | -123.93213 | 490 ft | 116 kts | 135° |
| 2026-05-06 14:42 | 45.15387 | -123.92329 | 359 ft | 118 kts | 133° |
| 2026-05-06 14:43 | 45.14864 | -123.91567 | 497 ft | 100 kts | 141° |
| 2026-05-06 14:43 | 45.14358 | -123.90996 | 625 ft | 87 kts | 148° |
| 2026-05-06 14:43 | 45.13878 | -123.90441 | 571 ft | 99 kts | 136° |
| 2026-05-06 14:43 | 45.13391 | -123.89685 | 463 ft | 107 kts | 132° |
| 2026-05-06 14:44 | 45.12818 | -123.89004 | 385 ft | 109 kts | 145° |
| 2026-05-06 14:44 | 45.12388 | -123.88129 | 338 ft | 106 kts | 137° |
| 2026-05-06 14:44 | 45.11862 | -123.87496 | 356 ft | 102 kts | 126° |
| 2026-05-06 14:45 | 45.11593 | -123.85758 | 509 ft | 83 kts | 107° |
| 2026-05-06 14:45 | 45.11113 | -123.85341 | 506 ft | 79 kts | 163° |
| 2026-05-06 14:45 | 45.10766 | -123.84907 | 598 ft | 71 kts | 113° |
| 2026-05-06 14:45 | 45.10690 | -123.84150 | 596 ft | 80 kts | 92° |
| 2026-05-06 14:46 | 45.10765 | -123.83331 | 557 ft | 91 kts | 64° |
| 2026-05-06 14:46 | 45.10784 | -123.82642 | 761 ft | 41 kts | 112° |
| 2026-05-06 14:46 | 45.10714 | -123.82421 | 690 ft | 8 kts | 111° |
| 2026-05-06 14:46 | 45.10717 | -123.82414 | 679 ft | 0 kts | 111° |
| 2026-05-06 14:47 | 45.10711 | -123.82414 | 695 ft | 0 kts | 111° |
| 2026-05-06 14:47 | 45.10713 | -123.82415 | 693 ft | 0 kts | 111° |
| 2026-05-06 14:47 | 45.10714 | -123.82415 | 690 ft | 0 kts | 111° |
| 2026-05-06 14:47 | 45.10713 | -123.82415 | 689 ft | 0 kts | 111° |
| 2026-05-06 14:48 | 45.10713 | -123.82414 | 689 ft | 0 kts | 111° |
| 2026-05-06 14:50 | 45.10712 | -123.82413 | 662 ft | 2 kts | 112° |
| 2026-05-06 14:50 | 45.10652 | -123.82159 | 830 ft | 68 kts | 114° |
| 2026-05-06 14:50 | 45.10643 | -123.81255 | 629 ft | 110 kts | 81° |
| 2026-05-06 14:51 | 45.10573 | -123.80166 | 631 ft | 110 kts | 106° |
| 2026-05-06 14:51 | 45.10354 | -123.79131 | 661 ft | 110 kts | 106° |
| 2026-05-06 14:51 | 45.10327 | -123.78044 | 619 ft | 114 kts | 105° |
| 2026-05-06 14:51 | 45.10075 | -123.77075 | 719 ft | 98 kts | 94° |
| 2026-05-06 14:52 | 45.09596 | -123.76621 | 703 ft | 89 kts | 167° |
| 2026-05-06 14:52 | 45.09009 | -123.76408 | 771 ft | 75 kts | 166° |
| 2026-05-06 14:52 | 45.08920 | -123.75760 | 765 ft | 85 kts | 49° |
| 2026-05-06 14:52 | 45.09243 | -123.74977 | 698 ft | 90 kts | 54° |
| 2026-05-06 14:53 | 45.09625 | -123.74283 | 781 ft | 92 kts | 65° |
| 2026-05-06 14:53 | 45.10073 | -123.74086 | 910 ft | 72 kts | 329° |
| 2026-05-06 14:53 | 45.10676 | -123.74089 | 737 ft | 101 kts | 33° |
| 2026-05-06 14:53 | 45.10962 | -123.73214 | 778 ft | 102 kts | 91° |
| 2026-05-06 14:54 | 45.10921 | -123.72228 | 792 ft | 95 kts | 123° |
| 2026-05-06 14:54 | 45.10563 | -123.71549 | 961 ft | 89 kts | 129° |
| 2026-05-06 14:54 | 45.10326 | -123.70538 | 656 ft | 123 kts | 103° |
| 2026-05-06 14:54 | 45.09931 | -123.69542 | 590 ft | 119 kts | 147° |
| 2026-05-06 14:55 | 45.09516 | -123.68711 | 670 ft | 106 kts | 88° |
| 2026-05-06 14:55 | 45.09241 | -123.67707 | 527 ft | 116 kts | 140° |
| 2026-05-06 14:55 | 45.08950 | -123.66739 | 532 ft | 111 kts | 119° |
| 2026-05-06 14:55 | 45.08513 | -123.65919 | 509 ft | 105 kts | 114° |
| 2026-05-06 14:56 | 45.08289 | -123.64967 | 490 ft | 100 kts | 106° |
| 2026-05-06 14:56 | 45.08241 | -123.64026 | 519 ft | 76 kts | 50° |
| 2026-05-06 14:56 | 45.08110 | -123.63422 | 551 ft | 69 kts | 130° |
| 2026-05-06 14:56 | 45.07992 | -123.62677 | 476 ft | 94 kts | 85° |
| 2026-05-06 14:57 | 45.07990 | -123.61730 | 537 ft | 98 kts | 88° |
| 2026-05-06 14:57 | 45.07990 | -123.60709 | 475 ft | 110 kts | 83° |
| 2026-05-06 14:57 | 45.07933 | -123.59676 | 539 ft | 107 kts | 107° |
| 2026-05-06 14:57 | 45.07644 | -123.58681 | 533 ft | 112 kts | 110° |
| 2026-05-06 14:58 | 45.07507 | -123.57694 | 454 ft | 67 kts | 173° |
| 2026-05-06 14:58 | 45.07098 | -123.57528 | 535 ft | 69 kts | 146° |
| 2026-05-06 14:58 | 45.06591 | -123.57483 | 493 ft | 75 kts | 156° |
| 2026-05-06 14:58 | 45.06052 | -123.57203 | 530 ft | 75 kts | 165° |
| 2026-05-06 14:59 | 45.06139 | -123.56583 | 478 ft | 90 kts | 64° |
| 2026-05-06 14:59 | 45.06077 | -123.55648 | 395 ft | 101 kts | 114° |
| 2026-05-06 14:59 | 45.05716 | -123.54795 | 374 ft | 101 kts | 123° |
| 2026-05-06 14:59 | 45.05290 | -123.53941 | 340 ft | 112 kts | 129° |
| 2026-05-06 15:00 | 45.05071 | -123.52932 | 347 ft | 109 kts | 94° |
| 2026-05-06 15:00 | 45.05061 | -123.51841 | 333 ft | 113 kts | 95° |
| 2026-05-06 15:00 | 45.05056 | -123.50748 | 429 ft | 106 kts | 84° |
| 2026-05-06 15:00 | 45.05300 | -123.49738 | 398 ft | 110 kts | 64° |
| 2026-05-06 15:01 | 45.05652 | -123.48799 | 479 ft | 106 kts | 62° |
| 2026-05-06 15:01 | 45.06021 | -123.47900 | 552 ft | 105 kts | 59° |
| 2026-05-06 15:01 | 45.06539 | -123.47171 | 435 ft | 117 kts | 40° |
| 2026-05-06 15:01 | 45.07094 | -123.46381 | 409 ft | 110 kts | 46° |
| 2026-05-06 15:02 | 45.07423 | -123.45439 | 430 ft | 111 kts | 69° |
| 2026-05-06 15:02 | 45.07687 | -123.44407 | 426 ft | 112 kts | 72° |
| 2026-05-06 15:02 | 45.07946 | -123.43339 | 392 ft | 123 kts | 72° |
| 2026-05-06 15:02 | 45.08256 | -123.42176 | 363 ft | 131 kts | 73° |
| 2026-05-06 15:03 | 45.08574 | -123.40950 | 331 ft | 135 kts | 73° |
| 2026-05-06 15:03 | 45.08904 | -123.39726 | 346 ft | 134 kts | 71° |
| 2026-05-06 15:03 | 45.09226 | -123.38472 | 347 ft | 132 kts | 73° |
| 2026-05-06 15:03 | 45.09524 | -123.37281 | 352 ft | 136 kts | 75° |
| 2026-05-06 15:04 | 45.09737 | -123.35969 | 339 ft | 134 kts | 79° |
| 2026-05-06 15:04 | 45.09946 | -123.34667 | 304 ft | 137 kts | 80° |
| 2026-05-06 15:04 | 45.10430 | -123.33563 | 342 ft | 133 kts | 54° |
| 2026-05-06 15:04 | 45.11008 | -123.32565 | 327 ft | 133 kts | 51° |
| 2026-05-06 15:05 | 45.11608 | -123.31574 | 371 ft | 128 kts | 51° |
| 2026-05-06 15:05 | 45.12322 | -123.30737 | 248 ft | 139 kts | 43° |
| 2026-05-06 15:05 | 45.13043 | -123.29852 | 260 ft | 136 kts | 44° |
| 2026-05-06 15:05 | 45.13726 | -123.28972 | 359 ft | 130 kts | 44° |
| 2026-05-06 15:06 | 45.14387 | -123.28124 | 457 ft | 127 kts | 44° |
| 2026-05-06 15:06 | 45.15053 | -123.27276 | 388 ft | 138 kts | 44° |
| 2026-05-06 15:06 | 45.15783 | -123.26326 | 284 ft | 142 kts | 44° |
| 2026-05-06 15:06 | 45.16525 | -123.25405 | 258 ft | 142 kts | 40° |
| 2026-05-06 15:07 | 45.17249 | -123.24528 | 394 ft | 132 kts | 44° |
| 2026-05-06 15:07 | 45.17880 | -123.23626 | 537 ft | 126 kts | 49° |
| 2026-05-06 15:07 | 45.18431 | -123.22694 | 687 ft | 121 kts | 54° |
| 2026-05-06 15:07 | 45.18908 | -123.21733 | 843 ft | 117 kts | 59° |
| 2026-05-06 15:08 | 45.19313 | -123.20751 | 1006 ft | 114 kts | 64° |
| 2026-05-06 15:08 | 45.19641 | -123.19767 | 1162 ft | 110 kts | 70° |
| 2026-05-06 15:08 | 45.19917 | -123.18686 | 983 ft | 134 kts | 78° |
| 2026-05-06 15:08 | 45.20004 | -123.17240 | 617 ft | 146 kts | 92° |
| 2026-05-06 15:09 | 45.20040 | -123.15799 | 556 ft | 139 kts | 90° |
| 2026-05-06 15:09 | 45.20081 | -123.14337 | 222 ft | 150 kts | 93° |
| 2026-05-06 15:09 | 45.20213 | -123.12924 | 243 ft | 142 kts | 69° |
| 2026-05-06 15:09 | 45.20649 | -123.11686 | 288 ft | 138 kts | 63° |
| 2026-05-06 15:10 | 45.21152 | -123.10554 | 359 ft | 134 kts | 57° |
| 2026-05-06 15:10 | 45.21719 | -123.09532 | 424 ft | 132 kts | 51° |
| 2026-05-06 15:10 | 45.22314 | -123.08430 | 243 ft | 141 kts | 55° |
| 2026-05-06 15:10 | 45.22904 | -123.07300 | 212 ft | 141 kts | 58° |
| 2026-05-06 15:11 | 45.23600 | -123.06378 | 204 ft | 137 kts | 14° |
| 2026-05-06 15:11 | 45.24172 | -123.05473 | 219 ft | 122 kts | 40° |
| 2026-05-06 15:11 | 45.24624 | -123.04509 | 236 ft | 124 kts | 56° |
| 2026-05-06 15:11 | 45.25093 | -123.03601 | 380 ft | 102 kts | 48° |
| 2026-05-06 15:12 | 45.25751 | -123.03010 | 305 ft | 117 kts | 37° |
| 2026-05-06 15:12 | 45.26419 | -123.02407 | 488 ft | 111 kts | 28° |
| 2026-05-06 15:12 | 45.27116 | -123.02005 | 703 ft | 105 kts | 18° |
| 2026-05-06 15:12 | 45.27691 | -123.01369 | 570 ft | 115 kts | 59° |
| 2026-05-06 15:13 | 45.28096 | -123.00807 | 492 ft | 128 kts | 36° |
| 2026-05-06 15:13 | 45.28827 | -122.99995 | 337 ft | 139 kts | 48° |
| 2026-05-06 15:13 | 45.29529 | -122.99028 | 263 ft | 143 kts | 48° |
| 2026-05-06 15:13 | 45.30025 | -122.97982 | 328 ft | 128 kts | 92° |
| 2026-05-06 15:14 | 45.30036 | -122.96723 | 299 ft | 131 kts | 91° |
| 2026-05-06 15:14 | 45.30356 | -122.95588 | 350 ft | 129 kts | 69° |
| 2026-05-06 15:14 | 45.30726 | -122.94400 | 340 ft | 131 kts | 71° |
| 2026-05-06 15:14 | 45.31058 | -122.93201 | 397 ft | 130 kts | 70° |
| 2026-05-06 15:15 | 45.31280 | -122.91976 | 471 ft | 123 kts | 76° |
| 2026-05-06 15:15 | 45.31615 | -122.90953 | 594 ft | 114 kts | 81° |
| 2026-05-06 15:15 | 45.32017 | -122.89924 | 516 ft | 129 kts | 62° |
| 2026-05-06 15:15 | 45.32566 | -122.88880 | 423 ft | 133 kts | 34° |
| 2026-05-06 15:16 | 45.33251 | -122.88100 | 435 ft | 125 kts | 62° |
| 2026-05-06 15:16 | 45.33978 | -122.87511 | 343 ft | 134 kts | 18° |
| 2026-05-06 15:16 | 45.34826 | -122.87069 | 381 ft | 129 kts | 22° |
| 2026-05-06 15:16 | 45.35593 | -122.86406 | 328 ft | 131 kts | 52° |
| 2026-05-06 15:17 | 45.36224 | -122.85460 | 315 ft | 134 kts | 50° |
| 2026-05-06 15:17 | 45.36861 | -122.84519 | 280 ft | 132 kts | 55° |
| 2026-05-06 15:17 | 45.37534 | -122.83645 | 242 ft | 131 kts | 32° |
| 2026-05-06 15:17 | 45.38137 | -122.82769 | 209 ft | 130 kts | 70° |
| 2026-05-06 15:18 | 45.38477 | -122.81586 | 202 ft | 129 kts | 72° |
| 2026-05-06 15:18 | 45.38909 | -122.80550 | 313 ft | 123 kts | 46° |
| 2026-05-06 15:18 | 45.39567 | -122.79943 | 447 ft | 108 kts | 357° |
| 2026-05-06 15:18 | 45.40391 | -122.79733 | 327 ft | 124 kts | 16° |
| 2026-05-06 15:19 | 45.41199 | -122.79360 | 435 ft | 120 kts | 23° |
| 2026-05-06 15:19 | 45.41904 | -122.78673 | 386 ft | 128 kts | 37° |
| 2026-05-06 15:19 | 45.42632 | -122.77902 | 269 ft | 139 kts | 46° |
| 2026-05-06 15:19 | 45.43266 | -122.76897 | 307 ft | 132 kts | 58° |
| 2026-05-06 15:20 | 45.43669 | -122.75789 | 371 ft | 116 kts | 41° |
| 2026-05-06 15:20 | 45.44106 | -122.74829 | 406 ft | 113 kts | 54° |
| 2026-05-06 15:20 | 45.44286 | -122.73897 | 683 ft | 88 kts | 61° |
| 2026-05-06 15:20 | 45.44663 | -122.73260 | 791 ft | 94 kts | 49° |
| 2026-05-06 15:21 | 45.45227 | -122.72716 | 818 ft | 106 kts | 40° |
| 2026-05-06 15:21 | 45.45488 | -122.71775 | 718 ft | 115 kts | 60° |
| 2026-05-06 15:21 | 45.45955 | -122.70776 | 610 ft | 128 kts | 54° |
| 2026-05-06 15:21 | 45.46533 | -122.69806 | 606 ft | 129 kts | 50° |
| 2026-05-06 15:22 | 45.47059 | -122.68756 | 535 ft | 132 kts | 77° |
| 2026-05-06 15:22 | 45.47206 | -122.67655 | 632 ft | 106 kts | 10° |
| 2026-05-06 15:22 | 45.47956 | -122.67867 | 592 ft | 116 kts | 353° |
| 2026-05-06 15:22 | 45.48759 | -122.67810 | 556 ft | 83 kts | 27° |
| 2026-05-06 15:23 | 45.49110 | -122.67547 | 474 ft | 60 kts | 32° |
| 2026-05-06 15:23 | 45.49539 | -122.67333 | 296 ft | 66 kts | 5° |
| 2026-05-06 15:23 | 45.49892 | -122.67349 | 282 ft | 45 kts | 356° |
| 2026-05-06 15:23 | 45.50258 | -122.67407 | 247 ft | 56 kts | 350° |
| 2026-05-06 15:24 | 45.50622 | -122.67549 | 261 ft | 46 kts | 336° |
| 2026-05-06 15:24 | 45.50806 | -122.67769 | 295 ft | 34 kts | 330° |
| 2026-05-06 15:24 | 45.51058 | -122.67897 | 292 ft | 36 kts | 343° |
| 2026-05-06 15:24 | 45.51241 | -122.67902 | 294 ft | 25 kts | 12° |
| 2026-05-06 15:25 | 45.51422 | -122.67785 | 295 ft | 36 kts | 23° |
| 2026-05-06 15:25 | 45.51655 | -122.67612 | 347 ft | 45 kts | 53° |
| 2026-05-06 15:25 | 45.51803 | -122.67202 | 437 ft | 46 kts | 30° |
| 2026-05-06 15:25 | 45.51989 | -122.67533 | 450 ft | 55 kts | 283° |
| 2026-05-06 15:26 | 45.52008 | -122.68064 | 454 ft | 50 kts | 280° |
| 2026-05-06 15:26 | 45.52047 | -122.68400 | 415 ft | 28 kts | 302° |
| 2026-05-06 15:26 | 45.52110 | -122.68612 | 431 ft | 20 kts | 308° |
| 2026-05-06 15:26 | 45.52191 | -122.68723 | 386 ft | 22 kts | 343° |
| 2026-05-06 15:27 | 45.52384 | -122.68698 | 380 ft | 38 kts | 6° |
| 2026-05-06 15:27 | 45.52713 | -122.68704 | 399 ft | 48 kts | 1° |
| 2026-05-06 15:27 | 45.53021 | -122.68723 | 419 ft | 44 kts | 36° |
| 2026-05-06 15:27 | 45.53209 | -122.68487 | 494 ft | 30 kts | 139° |
| 2026-05-06 15:28 | 45.52945 | -122.68481 | 415 ft | 32 kts | 191° |
| 2026-05-06 15:28 | 45.52732 | -122.68465 | 389 ft | 26 kts | 191° |
| 2026-05-06 15:28 | 45.52600 | -122.68375 | 380 ft | 19 kts | 191° |
| 2026-05-06 15:28 | 45.52484 | -122.68259 | 469 ft | 21 kts | 192° |
| 2026-05-06 15:29 | 45.52245 | -122.68271 | 494 ft | 48 kts | 186° |
| 2026-05-06 15:29 | 45.51831 | -122.68165 | 561 ft | 71 kts | 165° |
| 2026-05-06 15:29 | 45.51581 | -122.67828 | 714 ft | 51 kts | 50° |
| 2026-05-06 15:29 | 45.51852 | -122.67632 | 685 ft | 47 kts | 13° |
| 2026-05-06 15:30 | 45.51891 | -122.67394 | 468 ft | 41 kts | 199° |
| 2026-05-06 15:30 | 45.51707 | -122.67444 | 359 ft | 16 kts | 204° |
| 2026-05-06 15:30 | 45.51623 | -122.67462 | 391 ft | 8 kts | 203° |
| 2026-05-06 15:30 | 45.51576 | -122.67708 | 581 ft | 46 kts | 276° |
| 2026-05-06 15:31 | 45.51535 | -122.67721 | 281 ft | 50 kts | 357° |
| 2026-05-06 15:31 | 45.51919 | -122.67520 | 360 ft | 79 kts | 16° |
| 2026-05-06 15:31 | 45.52064 | -122.67234 | 409 ft | 45 kts | 206° |
| 2026-05-06 15:32 | 45.51730 | -122.67423 | 319 ft | 8 kts | 206° |
| 2026-05-06 15:32 | 45.51658 | -122.67408 | 396 ft | 12 kts | 209° |
| 2026-05-06 15:32 | 45.51637 | -122.67435 | 338 ft | 18 kts | 263° |
| 2026-05-06 15:32 | 45.51579 | -122.67479 | 347 ft | 22 kts | 13° |
| 2026-05-06 15:33 | 45.51507 | -122.67374 | 160 ft | 57 kts | 131° |
| 2026-05-06 15:33 | 45.51533 | -122.67399 | 120 ft | 13 kts | 24° |
| 2026-05-06 15:33 | 45.51571 | -122.67376 | 263 ft | 23 kts | 331° |
| 2026-05-06 15:33 | 45.51648 | -122.67419 | 312 ft | 16 kts | 263° |
| 2026-05-06 15:34 | 45.51622 | -122.67422 | 254 ft | 19 kts | 297° |
| 2026-05-06 15:34 | 45.51700 | -122.67486 | 441 ft | 18 kts | 200° |
| 2026-05-06 15:34 | 45.51738 | -122.67402 | 180 ft | 13 kts | 219° |
| 2026-05-06 15:34 | 45.51682 | -122.67364 | 252 ft | 3 kts | 223° |
| 2026-05-06 15:35 | 45.51669 | -122.67444 | 318 ft | 10 kts | 222° |
| 2026-05-06 15:35 | 45.51632 | -122.67475 | 303 ft | 0 kts | 222° |
| 2026-05-06 15:35 | 45.51632 | -122.67474 | 310 ft | 3 kts | 223° |
| 2026-05-06 15:35 | 45.51626 | -122.67481 | 310 ft | 2 kts | 224° |
| 2026-05-06 15:36 | 45.51625 | -122.67482 | 305 ft | 0 kts | 223° |
| 2026-05-06 15:36 | 45.51621 | -122.67485 | 328 ft | 4 kts | 223° |
| 2026-05-06 15:36 | 45.51514 | -122.67553 | 500 ft | 32 kts | 238° |
| 2026-05-06 15:36 | 45.51619 | -122.68058 | 625 ft | 36 kts | 286° |
| 2026-05-06 15:37 | 45.51701 | -122.68179 | 864 ft | 30 kts | 73° |
| 2026-05-06 15:37 | 45.51633 | -122.67888 | 886 ft | 25 kts | 200° |
| 2026-05-06 15:37 | 45.51458 | -122.67829 | 832 ft | 17 kts | 237° |
| 2026-05-06 15:37 | 45.51431 | -122.67820 | 587 ft | 5 kts | 281° |
| 2026-05-06 15:38 | 45.51385 | -122.68064 | 819 ft | 46 kts | 334° |
| 2026-05-06 15:38 | 45.51476 | -122.67979 | 887 ft | 40 kts | 128° |
| 2026-05-06 15:38 | 45.51461 | -122.67748 | 714 ft | 10 kts | 261° |
| 2026-05-06 15:38 | 45.51435 | -122.67864 | 820 ft | 16 kts | 289° |
| 2026-05-06 15:39 | 45.51582 | -122.68003 | 598 ft | 84 kts | 76° |
| 2026-05-06 15:39 | 45.51287 | -122.67308 | 639 ft | 91 kts | 125° |
| 2026-05-06 15:39 | 45.51357 | -122.67277 | 817 ft | 30 kts | 252° |
| 2026-05-06 15:39 | 45.51420 | -122.67655 | 836 ft | 39 kts | 296° |
| 2026-05-06 15:40 | 45.51743 | -122.67947 | 671 ft | 73 kts | 326° |
| 2026-05-06 15:40 | 45.52164 | -122.68280 | 737 ft | 61 kts | 0° |
| 2026-05-06 15:40 | 45.52474 | -122.67989 | 655 ft | 56 kts | 120° |
| 2026-05-06 15:40 | 45.52153 | -122.67891 | 564 ft | 49 kts | 184° |
| 2026-05-06 15:41 | 45.51996 | -122.67764 | 435 ft | 13 kts | 148° |
| 2026-05-06 15:41 | 45.51946 | -122.67685 | 482 ft | 31 kts | 155° |
| 2026-05-06 15:41 | 45.51794 | -122.67615 | 426 ft | 23 kts | 154° |
| 2026-05-06 15:41 | 45.51648 | -122.67509 | 344 ft | 15 kts | 153° |
| 2026-05-06 15:42 | 45.51643 | -122.67494 | 313 ft | 5 kts | 160° |
| 2026-05-06 15:42 | 45.51629 | -122.67480 | 304 ft | 0 kts | 158° |
| 2026-05-06 15:42 | 45.51584 | -122.67420 | 316 ft | 29 kts | 157° |
| 2026-05-06 15:43 | 45.51815 | -122.66956 | 273 ft | 86 kts | 29° |
| 2026-05-06 15:43 | 45.52394 | -122.66568 | 238 ft | 93 kts | 20° |
| 2026-05-06 15:43 | 45.53008 | -122.66573 | 256 ft | 84 kts | 0° |
| 2026-05-06 15:43 | 45.53557 | -122.66641 | 369 ft | 76 kts | 347° |
| 2026-05-06 15:44 | 45.54012 | -122.66930 | 469 ft | 68 kts | 330° |
| 2026-05-06 15:44 | 45.54433 | -122.67257 | 465 ft | 76 kts | 356° |
| 2026-05-06 15:44 | 45.54959 | -122.66985 | 416 ft | 85 kts | 26° |
| 2026-05-06 15:44 | 45.55460 | -122.66550 | 427 ft | 85 kts | 48° |
| 2026-05-06 15:45 | 45.55759 | -122.65828 | 462 ft | 86 kts | 61° |
| 2026-05-06 15:45 | 45.56052 | -122.65092 | 482 ft | 85 kts | 59° |
| 2026-05-06 15:45 | 45.56361 | -122.64375 | 509 ft | 85 kts | 58° |
| 2026-05-06 15:45 | 45.56687 | -122.63678 | 525 ft | 84 kts | 56° |
| 2026-05-06 15:46 | 45.57029 | -122.63002 | 538 ft | 84 kts | 53° |
| 2026-05-06 15:46 | 45.57387 | -122.62346 | 554 ft | 83 kts | 52° |
| 2026-05-06 15:46 | 45.57681 | -122.61640 | 535 ft | 82 kts | 66° |
| 2026-05-06 15:46 | 45.57815 | -122.60885 | 368 ft | 68 kts | 85° |
| 2026-05-06 15:47 | 45.57737 | -122.60398 | 250 ft | 43 kts | 122° |
| 2026-05-06 15:47 | 45.57610 | -122.60062 | 172 ft | 37 kts | 120° |
| 2026-05-06 15:47 | 45.57644 | -122.59717 | 148 ft | 29 kts | 68° |
| 2026-05-06 15:47 | 45.57704 | -122.59602 | 55 ft | 10 kts | 307° |
| 2026-05-06 15:48 | 45.57818 | -122.59650 | 89 ft | 26 kts | 352° |
| 2026-05-06 15:48 | 45.58028 | -122.59639 | 132 ft | 29 kts | 18° |
| 2026-05-06 15:48 | 45.58209 | -122.59574 | 93 ft | 21 kts | 281° |
| 2026-05-06 15:48 | 45.58266 | -122.59608 | 64 ft | 13 kts | 266° |
| 2026-05-06 15:49 | 45.58279 | -122.59800 | 50 ft | 18 kts | 267° |
| 2026-05-06 15:49 | 45.58277 | -122.59910 | 41 ft | 6 kts | 266° |
| 2026-05-06 15:49 | 45.58277 | -122.59984 | 39 ft | 10 kts | 265° |
| 2026-05-06 15:49 | 45.58275 | -122.59994 | 28 ft | 0 kts | 263° |
| 2026-05-06 15:50 | 45.58275 | -122.59995 | 29 ft | 2 kts | 264° |
| 2026-05-06 15:50 | 45.58259 | -122.59996 | 83 ft | 4 kts | 277° |
| 2026-05-06 15:50 | 45.58317 | -122.60142 | 98 ft | 27 kts | 247° |
| 2026-05-06 15:50 | 45.58208 | -122.60278 | 103 ft | 29 kts | 151° |
| 2026-05-06 15:51 | 45.58022 | -122.60219 | 95 ft | 27 kts | 152° |
| 2026-05-06 15:51 | 45.57884 | -122.60183 | 63 ft | 17 kts | 151° |
| 2026-05-06 15:51 | 45.57784 | -122.60096 | 59 ft | 20 kts | 150° |
| 2026-05-06 15:51 | 45.57723 | -122.60025 | 36 ft | 8 kts | 282° |
| 2026-05-06 15:52 | 45.57725 | -122.60179 | 95 ft | 28 kts | 52° |
| 2026-05-06 15:52 | 45.57924 | -122.60102 | 180 ft | 36 kts | 80° |
| 2026-05-06 15:52 | 45.57964 | -122.59710 | 193 ft | 40 kts | 82° |
| 2026-05-06 15:52 | 45.57892 | -122.59319 | 159 ft | 44 kts | 113° |
| 2026-05-06 15:53 | 45.57792 | -122.58894 | 138 ft | 45 kts | 110° |
| 2026-05-06 15:53 | 45.57818 | -122.58487 | 121 ft | 42 kts | 74° |
| 2026-05-06 15:53 | 45.57743 | -122.58145 | 52 ft | 20 kts | 119° |
| 2026-05-06 15:53 | 45.57748 | -122.58048 | 39 ft | 1 kts | 120° |
| 2026-05-06 15:54 | 45.57792 | -122.57940 | 61 ft | 25 kts | 47° |
| 2026-05-06 15:54 | 45.57945 | -122.57805 | 52 ft | 14 kts | 326° |
| 2026-05-06 15:54 | 45.57963 | -122.57845 | 32 ft | 10 kts | 285° |
| 2026-05-06 15:54 | 45.57964 | -122.57890 | 30 ft | 3 kts | 285° |
| 2026-05-06 15:55 | 45.57966 | -122.57912 | 26 ft | 0 kts | 274° |
| 2026-05-06 15:55 | 45.57966 | -122.57913 | 31 ft | 2 kts | 275° |
| 2026-05-06 15:55 | 45.57975 | -122.57970 | 60 ft | 15 kts | 21° |
| 2026-05-06 15:55 | 45.58144 | -122.57763 | 116 ft | 43 kts | 44° |
| 2026-05-06 15:56 | 45.58341 | -122.57568 | 107 ft | 22 kts | 17° |
| 2026-05-06 15:56 | 45.58503 | -122.57638 | 116 ft | 25 kts | 300° |
| 2026-05-06 15:56 | 45.58550 | -122.57797 | 35 ft | 10 kts | 290° |
| 2026-05-06 15:56 | 45.58556 | -122.57854 | 27 ft | 0 kts | 287° |
| 2026-05-06 15:57 | 45.58563 | -122.57901 | 25 ft | 10 kts | 261° |
| 2026-05-06 15:57 | 45.58544 | -122.57953 | 31 ft | 10 kts | 208° |
| 2026-05-06 15:57 | 45.58522 | -122.57969 | 27 ft | 0 kts | 202° |
| 2026-05-06 15:58 | 45.58521 | -122.57970 | 30 ft | 2 kts | 193° |
| 2026-05-06 15:58 | 45.58514 | -122.57967 | 27 ft | 0 kts | 46° |